M I D A S
Marine Information and Data Acquisition System
Tripno 1239 of the Zeeleeuw from 2007-03-26 07:10:47 to 2007-03-26 15:19:56
Back to CruiseResearch ActivitiesStationsMapUnderway DataData graphs

EquipmentUnitsComment
TimeDGPSUTC
LatitudeDGPSDM.mWGS84
LongitudeDGPSDM.mWGS84
TemperatureSBE03/SBE38deg celciusITS90
ConductivitySBE21S/mITS90
SalinitySBE21 Practical Salinity Units
ChlorophylAChelsea fluorimeterg/lCalibrated in Aceton
Missing or incorrect values are displayed as -999
Sea surface data collected by the RV Zeeleeuw from 2007-03-26 06:50:44 to 2007-03-26 15:31:24
Time Latitude Longitude Temperature Conductivity Salinity ChlorophylA
2007-03-26 06:51:49 51°13.602 2°56.06 7.9792 2.567149 22.937043 -2.871232
2007-03-26 06:52:49 51°13.625 2°55.944 7.9645 2.797575 25.20098 -2.871232
2007-03-26 06:53:49 51°13.679 2°55.839 7.9542 2.851658 25.757741 -2.871232
2007-03-26 06:54:49 51°13.741 2°55.743 7.9399 2.911435 26.354175 -2.871232
2007-03-26 06:55:49 51°13.765 2°55.708 7.9153 2.837077 25.629475 -2.871232
2007-03-26 06:56:49 51°13.761 2°55.672 7.8968 2.691084 24.214153 -2.871232
2007-03-26 06:57:47 51°13.792 2°55.675 7.8681 2.714448 24.447469 -2.871232
2007-03-26 06:58:46 51°13.878 2°55.61 7.8632 2.696563 24.279658 -2.871232
2007-03-26 06:59:46 51°13.998 2°55.516 7.9109 2.716309 24.476614 -2.871232
2007-03-26 07:00:46 51°14.136 2°55.416 7.9046 2.861483 25.896527 -2.871232
2007-03-26 07:01:48 51°14.286 2°55.223 7.9118 2.855381 25.836397 -2.871232
2007-03-26 07:02:46 51°14.419 2°54.999 7.9337 2.860138 25.88029 -2.871232
2007-03-26 07:03:46 51°14.621 2°54.86 7.8488 3.032979 27.603053 -2.871232
2007-03-26 07:04:46 51°14.846 2°54.819 7.7757 3.112441 28.483244 -2.871232
2007-03-26 07:05:46 51°15.07 2°54.75 7.7629 3.143174 28.829108 -2.871232
2007-03-26 07:06:46 51°15.293 2°54.675 7.77 3.147831 28.889826 -2.871232
2007-03-26 07:07:46 51°15.515 2°54.596 7.7764 3.16056 29.022225 -2.871232
2007-03-26 07:08:46 51°15.738 2°54.525 7.7756 3.167596 29.086505 -2.871232
2007-03-26 07:09:46 51°15.942 2°54.466 7.7806 3.174634 29.163595 -2.871232
2007-03-26 07:10:46 51°16.077 2°54.437 7.8099 3.193262 29.334419 -2.871232
2007-03-26 07:11:46 51°16.168 2°54.414 7.814 3.201644 29.401869 -2.871232
2007-03-26 07:12:46 51°16.215 2°54.366 7.8229 3.205267 29.435447 -2.871232
2007-03-26 07:13:46 51°16.235 2°54.349 7.8329 3.207129 29.443872 -2.871232
2007-03-26 07:14:46 51°16.24 2°54.348 7.833 3.207854 29.449616 -2.871232
2007-03-26 07:15:46 51°16.245 2°54.348 7.8304 3.208268 29.456246 -2.871232
2007-03-26 07:16:46 51°16.25 2°54.346 7.8303 3.208578 29.45536 -2.871232
2007-03-26 07:17:46 51°16.254 2°54.344 7.834 3.208889 29.459322 -2.871232
2007-03-26 07:18:46 51°16.26 2°54.342 7.8339 3.209096 29.461425 -2.871232
2007-03-26 07:19:46 51°16.265 2°54.34 7.8351 3.208992 29.460373 -2.871232
2007-03-26 07:20:46 51°16.27 2°54.337 7.8324 3.208785 29.459887 -2.871232
2007-03-26 07:21:46 51°16.275 2°54.336 7.8356 3.208889 29.46013 -2.871232
2007-03-26 07:22:46 51°16.279 2°54.334 7.833 3.208992 29.460373 -2.871232
2007-03-26 07:23:46 51°16.283 2°54.331 7.8365 3.209096 29.459808 -2.871232
2007-03-26 07:24:46 51°16.316 2°54.301 7.8361 3.209096 29.459808 -2.871232
2007-03-26 07:25:46 51°16.413 2°54.102 7.8407 3.209096 29.458192 -2.871232
2007-03-26 07:26:46 51°16.528 2°53.809 7.8382 3.208268 29.448974 -2.871232
2007-03-26 07:27:46 51°16.649 2°53.506 7.8448 3.208268 29.442513 -2.871232
2007-03-26 07:28:46 51°16.772 2°53.203 7.8295 3.207854 29.441539 -2.871232
2007-03-26 07:29:46 51°16.917 2°52.926 7.8145 3.204439 29.424611 -2.871232
2007-03-26 07:30:46 51°17.07 2°52.652 7.8364 3.189846 29.275589 -2.871232
2007-03-26 07:31:46 51°17.241 2°52.406 7.8293 3.210855 29.481726 -2.871232
2007-03-26 07:32:46 51°17.422 2°52.174 7.8641 3.22048 29.569811 -2.871232
2007-03-26 07:33:46 51°17.602 2°51.943 7.8982 3.236626 29.701355 -2.871232
2007-03-26 07:34:46 51°17.783 2°51.714 7.9068 3.244803 29.774641 -2.871232
2007-03-26 07:35:46 51°17.963 2°51.483 7.9368 3.263641 29.95132 -2.871232
2007-03-26 07:36:46 51°18.137 2°51.255 7.9422 3.282893 30.11737 -2.871232
2007-03-26 07:37:46 51°18.264 2°51.111 7.93 3.281444 30.101822 -2.871232
2007-03-26 07:38:46 51°18.367 2°51.032 7.9191 3.272749 30.02664 -2.871232
2007-03-26 07:39:46 51°18.446 2°51.023 7.9147 3.267263 29.980751 -2.871232
2007-03-26 07:40:46 51°18.491 2°51.022 7.9132 3.268091 29.992449 -2.871232
2007-03-26 07:41:46 51°18.499 2°51.014 7.9124 3.268299 29.995374 -2.871232
2007-03-26 07:42:46 51°18.501 2°51.007 7.9127 3.268506 29.995836 -2.871232
2007-03-26 07:43:46 51°18.503 2°51.003 7.912 3.268609 29.999351 -2.871232
2007-03-26 07:44:46 51°18.505 2°50.999 7.9158 3.269437 30.006125 -2.871232
2007-03-26 07:45:46 51°18.508 2°50.994 7.9118 3.269748 30.009281 -2.871232
2007-03-26 07:46:46 51°18.512 2°50.986 7.9127 3.269437 30.006946 -2.871232
2007-03-26 07:47:46 51°18.516 2°50.975 7.9197 3.269748 30.007638 -2.871232
2007-03-26 07:48:46 51°18.522 2°50.964 7.9177 3.269955 30.007278 -2.871232
2007-03-26 07:49:46 51°18.528 2°50.953 7.9197 3.270058 30.008329 -2.871232
2007-03-26 07:50:46 51°18.534 2°50.941 7.9213 3.270162 30.00856 -2.871232
2007-03-26 07:51:46 51°18.54 2°50.929 7.9231 3.270472 30.007609 -2.871232
2007-03-26 07:52:46 51°18.545 2°50.918 7.9249 3.270576 30.00784 -2.871232
2007-03-26 07:53:46 51°18.572 2°50.875 7.9301 3.270886 30.010995 -2.871232
2007-03-26 07:54:46 51°18.698 2°50.875 7.935 3.273267 30.02122 -2.871232
2007-03-26 07:55:46 51°18.868 2°51.04 7.9308 3.276372 30.061807 -2.871232
2007-03-26 07:56:46 51°19.053 2°51.256 7.9283 3.2772 30.065287 -2.871232
2007-03-26 07:57:46 51°19.215 2°51.515 7.9243 3.274612 30.043927 -2.871232
2007-03-26 07:58:46 51°19.346 2°51.81 7.9178 3.270265 30.005506 -2.871232
2007-03-26 07:59:46 51°19.41 2°52.154 7.9115 3.265504 29.965332 -2.871232
2007-03-26 08:00:46 51°19.471 2°52.497 7.9051 3.260018 29.915327 -2.871232
2007-03-26 08:01:46 51°19.536 2°52.839 7.898 3.258983 29.909724 -2.871232
2007-03-26 08:02:46 51°19.602 2°53.182 7.8932 3.259501 29.925636 -2.871232
2007-03-26 08:03:46 51°19.669 2°53.523 7.8825 3.261571 29.948323 -2.871232
2007-03-26 08:04:46 51°19.734 2°53.865 7.8808 3.262606 29.965414 -2.871232
2007-03-26 08:05:46 51°19.801 2°54.207 7.8804 3.263951 29.979099 -2.871232
2007-03-26 08:06:46 51°19.868 2°54.551 7.8629 3.263641 29.981692 -2.871232
2007-03-26 08:07:46 51°19.935 2°54.893 7.8691 3.264573 29.998568 -2.871232
2007-03-26 08:08:46 51°20.003 2°55.234 7.8704 3.264366 29.992351 -2.871232
2007-03-26 08:09:46 51°20.07 2°55.575 7.8715 3.266643 30.013874 -2.871232
2007-03-26 08:10:46 51°20.139 2°55.917 7.8672 3.269541 30.045835 -2.871232
2007-03-26 08:11:46 51°20.206 2°56.26 7.8618 3.266539 30.022696 -2.871232
2007-03-26 08:12:46 51°20.273 2°56.604 7.8643 3.264262 30.001166 -2.871232
2007-03-26 08:13:46 51°20.342 2°56.948 7.8649 3.261467 29.969438 -2.871232
2007-03-26 08:14:46 51°20.41 2°57.291 7.8723 3.257534 29.926959 -2.871232
2007-03-26 08:15:45 51°20.477 2°57.626 7.8928 3.259604 29.936529 -2.871232
2007-03-26 08:16:46 51°20.544 2°57.97 7.894 3.261881 29.948198 -2.871232
2007-03-26 08:17:46 51°20.61 2°58.305 7.8987 3.262088 29.947021 -2.871232
2007-03-26 08:18:46 51°20.666 2°58.642 7.8973 3.26302 29.951569 -2.871232
2007-03-26 08:19:46 51°20.678 2°58.99 7.8905 3.26095 29.934628 -2.871232
2007-03-26 08:20:46 51°20.708 2°59.337 7.879 3.254118 29.878293 -2.871232
2007-03-26 08:21:46 51°20.747 2°59.684 7.8704 3.249668 29.838775 -2.871232
2007-03-26 08:22:46 51°20.787 3°0.029 7.8705 3.25091 29.866954 -2.871232
2007-03-26 08:23:46 51°20.826 3°0.374 7.8979 3.260432 29.94495 -2.871232
2007-03-26 08:24:46 51°20.865 3°0.718 7.9142 3.271611 30.037263 -2.871232
2007-03-26 08:25:46 51°20.904 3°1.061 7.9219 3.273474 30.044689 -2.871232
2007-03-26 08:26:46 51°20.943 3°1.403 7.9221 3.27306 30.033904 -2.871232
2007-03-26 08:27:46 51°20.988 3°1.743 7.9204 3.269023 29.997811 -2.871232
2007-03-26 08:28:46 51°21.062 3°2.068 7.9277 3.267988 29.987293 -2.871232
2007-03-26 08:29:46 51°21.112 3°2.406 7.9306 3.271714 30.016123 -2.871232
2007-03-26 08:30:46 51°21.149 3°2.747 7.9494 3.278235 30.075804 -2.871232
2007-03-26 08:31:46 51°21.179 3°3.087 7.9588 3.277511 30.052821 -2.871232
2007-03-26 08:32:46 51°21.191 3°3.43 7.9648 3.274405 30.016365 -2.871232
2007-03-26 08:33:46 51°21.204 3°3.772 7.9592 3.272231 29.994298 -2.871232
2007-03-26 08:34:46 51°21.23 3°4.112 7.9619 3.272542 29.999911 -2.871232
2007-03-26 08:35:46 51°21.286 3°4.442 7.965 3.273473 30.002807 -2.871232
2007-03-26 08:36:46 51°21.344 3°4.773 7.9613 3.272128 29.988329 -2.871232
2007-03-26 08:37:46 51°21.401 3°5.104 7.9622 3.270782 29.97795 -2.871232
2007-03-26 08:38:46 51°21.457 3°5.436 7.9647 3.268608 29.953432 -2.871232
2007-03-26 08:39:46 51°21.524 3°5.764 7.9714 3.266331 29.929507 -2.871232
2007-03-26 08:40:46 51°21.601 3°6.087 7.9739 3.265089 29.912817 -2.871232
2007-03-26 08:41:46 51°21.678 3°6.413 7.9823 3.265296 29.909195 -2.871232
2007-03-26 08:42:46 51°21.753 3°6.738 7.9888 3.267573 29.921666 -2.871232
2007-03-26 08:43:46 51°21.826 3°7.062 7.9884 3.268815 29.935079 -2.871232
2007-03-26 08:44:46 51°21.9 3°7.386 7.9894 3.271713 29.962017 -2.871232
2007-03-26 08:45:46 51°21.974 3°7.71 7.982 3.274922 29.99538 -2.871232
2007-03-26 08:46:46 51°22.047 3°8.034 7.9818 3.276889 30.020249 -2.871232
2007-03-26 08:47:46 51°22.107 3°8.362 7.9818 3.279684 30.049427 -2.871232
2007-03-26 08:48:46 51°22.134 3°8.7 7.9803 3.28134 30.068698 -2.871232
2007-03-26 08:49:46 51°22.161 3°9.038 7.9782 3.281961 30.075823 -2.871232
2007-03-26 08:50:46 51°22.189 3°9.374 7.978 3.283307 30.09277 -2.871232
2007-03-26 08:51:46 51°22.217 3°9.709 7.9646 3.279995 30.062433 -2.871232
2007-03-26 08:52:46 51°22.246 3°10.041 7.9506 3.273991 30.00724 -2.871232
2007-03-26 08:53:46 51°22.279 3°10.368 7.9424 3.261777 29.900463 -2.871232
2007-03-26 08:54:46 51°22.313 3°10.694 7.9132 3.230312 29.597498 -2.871232
2007-03-26 08:55:46 51°22.343 3°11.025 7.9309 3.233521 29.634093 -2.871232
2007-03-26 08:56:46 51°22.371 3°11.36 7.9184 3.236729 29.66502 -2.871232
2007-03-26 08:57:46 51°22.4 3°11.689 7.9342 3.240145 29.702112 -2.871232
2007-03-26 08:58:46 51°22.431 3°12.015 7.9333 3.24149 29.706012 -2.871232
2007-03-26 08:59:46 51°22.461 3°12.342 7.9341 3.244078 29.729011 -2.871232
2007-03-26 09:00:45 51°22.484 3°12.626 7.9417 3.250805 29.794014 -2.871232
2007-03-26 09:01:46 51°22.508 3°12.816 7.9258 3.25567 29.845014 -2.871232
2007-03-26 09:02:46 51°22.539 3°12.969 7.927 3.254739 29.845355 -2.871232
2007-03-26 09:03:46 51°22.566 3°13.106 7.9339 3.256912 29.86579 -2.871232
2007-03-26 09:04:46 51°22.587 3°13.204 7.9406 3.258361 29.876416 -2.871232
2007-03-26 09:05:46 51°22.594 3°13.227 7.9482 3.259293 29.876066 -2.871232
2007-03-26 09:06:46 51°22.594 3°13.221 7.9469 3.260017 29.882603 -2.871232
2007-03-26 09:07:46 51°22.593 3°13.208 7.9566 3.260742 29.885053 -2.871232
2007-03-26 09:08:46 51°22.589 3°13.184 7.9583 3.261466 29.887503 -2.871232
2007-03-26 09:09:46 51°22.584 3°13.151 7.9593 3.261673 29.888786 -2.871232
2007-03-26 09:10:46 51°22.58 3°13.114 7.9589 3.261777 29.892288 -2.871232
2007-03-26 09:11:46 51°22.575 3°13.075 7.9589 3.262294 29.892636 -2.871232
2007-03-26 09:12:46 51°22.56 3°13.04 7.962 3.262088 29.893805 -2.871232
2007-03-26 09:13:46 51°22.516 3°12.927 7.9691 3.263019 29.890183 -2.871232
2007-03-26 09:14:46 51°22.589 3°12.756 7.9426 3.258568 29.862996 -2.871232
2007-03-26 09:15:46 51°22.744 3°12.526 7.9672 3.259293 29.866265 -2.871232
2007-03-26 09:16:46 51°22.953 3°12.388 7.9675 3.268091 29.937543 -2.871232
2007-03-26 09:17:46 51°23.172 3°12.301 7.9483 3.263433 29.906641 -2.871232
2007-03-26 09:18:46 51°23.392 3°12.218 7.9562 3.260328 29.876767 -2.871232
2007-03-26 09:19:46 51°23.612 3°12.134 7.9693 3.270886 29.977362 -2.871232
2007-03-26 09:20:46 51°23.833 3°12.049 7.9906 3.277717 30.033573 -2.871232
2007-03-26 09:21:46 51°24.055 3°11.964 8.0141 3.288689 30.12108 -2.871232
2007-03-26 09:22:46 51°24.277 3°11.878 8.0784 3.305045 30.263103 -2.871232
2007-03-26 09:23:46 51°24.498 3°11.794 8.0942 3.32316 30.398022 -2.871232
2007-03-26 09:24:46 51°24.718 3°11.706 8.102 3.331131 30.466386 -2.871232
2007-03-26 09:25:46 51°24.937 3°11.605 8.0926 3.338171 30.535253 -2.871232
2007-03-26 09:26:46 51°25.15 3°11.468 8.0989 3.344175 30.603631 -2.871232
2007-03-26 09:27:46 51°25.362 3°11.317 8.0883 3.345728 30.621051 -2.871232
2007-03-26 09:28:46 51°25.548 3°11.097 8.093 3.347178 30.644099 -2.871232
2007-03-26 09:29:46 51°25.69 3°10.811 8.0923 3.355253 30.712673 -2.871232
2007-03-26 09:30:46 51°25.805 3°10.492 8.0585 3.367366 30.844016 -2.871232
2007-03-26 09:31:46 51°25.934 3°10.182 8.0787 3.371922 30.907962 -2.871232
2007-03-26 09:32:46 51°26.035 3°9.844 8.1111 3.359498 30.754911 -2.871232
2007-03-26 09:33:46 51°26.144 3°9.508 8.1195 3.358255 30.731425 -2.871232
2007-03-26 09:34:46 51°26.251 3°9.169 8.1202 3.359497 30.735663 -2.871232
2007-03-26 09:35:46 51°26.349 3°8.873 8.1269 3.369229 30.820131 -2.871232
2007-03-26 09:36:46 51°26.41 3°8.651 8.1178 3.375131 30.891753 -2.871232
2007-03-26 09:37:46 51°26.408 3°8.473 8.1226 3.380825 30.950392 -2.871232
2007-03-26 09:38:46 51°26.391 3°8.366 8.1219 3.386209 31.005052 -2.871232
2007-03-26 09:39:46 51°26.38 3°8.309 8.1379 3.38828 31.021014 -2.871232
2007-03-26 09:40:46 51°26.374 3°8.242 8.1442 3.388797 31.013613 -2.871232
2007-03-26 09:41:46 51°26.4 3°8.161 8.134 3.386105 30.988822 -2.871232
2007-03-26 09:42:46 51°26.451 3°8.121 8.1435 3.386416 30.993661 -2.871232
2007-03-26 09:43:46 51°26.499 3°8.133 8.134 3.390143 31.028962 -2.871232
2007-03-26 09:44:46 51°26.511 3°8.198 8.1265 3.390247 31.034233 -2.871232
2007-03-26 09:45:46 51°26.479 3°8.24 8.1226 3.388797 31.028803 -2.871232
2007-03-26 09:46:46 51°26.465 3°8.303 8.132 3.389004 31.02584 -2.871232
2007-03-26 09:47:46 51°26.446 3°8.375 8.1507 3.391489 31.042625 -2.871232
2007-03-26 09:48:46 51°26.417 3°8.398 8.1495 3.389108 31.00749 -2.871232
2007-03-26 09:49:46 51°26.409 3°8.396 8.1487 3.386312 30.977444 -2.871232
2007-03-26 09:50:46 51°26.406 3°8.389 8.154 3.385484 30.969041 -2.871232
2007-03-26 09:51:46 51°26.406 3°8.378 8.1581 3.384345 30.954123 -2.871232
2007-03-26 09:52:46 51°26.407 3°8.363 8.1747 3.383517 30.937313 -2.871232
2007-03-26 09:53:46 51°26.408 3°8.346 8.1885 3.383516 30.926388 -2.871232
2007-03-26 09:54:46 51°26.409 3°8.328 8.1866 3.383723 30.917569 -2.871232
2007-03-26 09:55:46 51°26.403 3°8.318 8.1863 3.383413 30.91778 -2.871232
2007-03-26 09:56:46 51°26.367 3°8.296 8.16 3.382895 30.917572 -2.871232
2007-03-26 09:57:46 51°26.362 3°8.189 8.1803 3.381032 30.906241 -2.871232
2007-03-26 09:58:46 51°26.437 3°7.989 8.1838 3.381549 30.897218 -2.871232
2007-03-26 09:59:46 51°26.553 3°7.678 8.1612 3.383206 30.92576 -2.871232
2007-03-26 10:00:46 51°26.671 3°7.356 8.1567 3.389522 31.002421 -2.871232
2007-03-26 10:01:46 51°26.79 3°7.033 8.168 3.395009 31.057245 -2.871232
2007-03-26 10:02:46 51°26.911 3°6.714 8.1703 3.402257 31.118948 -2.871232
2007-03-26 10:03:46 51°27.034 3°6.397 8.1626 3.402671 31.12907 -2.871232
2007-03-26 10:04:46 51°27.155 3°6.079 8.1656 3.406709 31.165813 -2.871232
2007-03-26 10:05:46 51°27.276 3°5.761 8.1568 3.407227 31.180386 -2.871232
2007-03-26 10:06:46 51°27.398 3°5.444 8.1692 3.41199 31.225344 -2.871232
2007-03-26 10:07:46 51°27.518 3°5.127 8.174 3.420895 31.307253 -2.871232
2007-03-26 10:08:46 51°27.64 3°4.811 8.1808 3.42369 31.332235 -2.871232
2007-03-26 10:09:46 51°27.76 3°4.496 8.1709 3.422965 31.323174 -2.871232
2007-03-26 10:10:46 51°27.88 3°4.178 8.1768 3.422344 31.323674 -2.871232
2007-03-26 10:11:46 51°28.01 3°3.87 8.1952 3.424208 31.330682 -2.871232
2007-03-26 10:12:46 51°28.114 3°3.675 8.1973 3.445124 31.525985 -2.871232
2007-03-26 10:13:46 51°28.198 3°3.57 8.2072 3.452477 31.598943 -2.871232
2007-03-26 10:14:46 51°28.257 3°3.513 8.2202 3.453823 31.601465 -2.871232
2007-03-26 10:15:46 51°28.27 3°3.485 8.2258 3.455686 31.616962 -2.871232
2007-03-26 10:16:46 51°28.274 3°3.453 8.2253 3.45579 31.616298 -2.871232
2007-03-26 10:17:46 51°28.275 3°3.418 8.2317 3.455169 31.605702 -2.871232
2007-03-26 10:18:46 51°28.272 3°3.384 8.2299 3.456722 31.618041 -2.871232
2007-03-26 10:19:46 51°28.267 3°3.353 8.2343 3.457654 31.624071 -2.871232
2007-03-26 10:20:46 51°28.261 3°3.322 8.2318 3.457654 31.624929 -2.871232
2007-03-26 10:21:46 51°28.255 3°3.293 8.2291 3.457447 31.6254 -2.871232
2007-03-26 10:22:46 51°28.252 3°3.26 8.2314 3.457343 31.626064 -2.871232
2007-03-26 10:23:46 51°28.272 3°3.129 8.2296 3.457447 31.626258 -2.871232
2007-03-26 10:24:46 51°28.251 3°2.827 8.2024 3.449266 31.552633 -2.871232
2007-03-26 10:25:46 51°28.217 3°2.46 8.1923 3.440258 31.475712 -2.871232
2007-03-26 10:26:46 51°28.182 3°2.09 8.1968 3.435184 31.434445 -2.871232
2007-03-26 10:27:46 51°28.147 3°1.718 8.1954 3.432699 31.404096 -2.871232
2007-03-26 10:28:46 51°28.117 3°1.349 8.1923 3.43011 31.383784 -2.871232
2007-03-26 10:29:46 51°28.087 3°0.977 8.1924 3.427418 31.356456 -2.871232
2007-03-26 10:30:46 51°28.038 3°0.615 8.2148 3.424415 31.324276 -2.871232
2007-03-26 10:31:46 51°27.965 3°0.261 8.2399 3.420998 31.265831 -2.871232
2007-03-26 10:32:46 51°27.898 2°59.907 8.2054 3.417374 31.226548 -2.871232
2007-03-26 10:33:46 51°27.828 2°59.553 8.1932 3.414164 31.200784 -2.871232
2007-03-26 10:34:46 51°27.76 2°59.198 8.198 3.4123 31.193741 -2.871232
2007-03-26 10:35:46 51°27.695 2°58.845 8.2014 3.407641 31.14058 -2.871232
2007-03-26 10:36:46 51°27.627 2°58.493 8.1633 3.406813 31.149937 -2.871232
2007-03-26 10:37:46 51°27.559 2°58.141 8.1681 3.400807 31.111005 -2.871232
2007-03-26 10:38:46 51°27.493 2°57.787 8.1771 3.397287 31.066846 -2.871232
2007-03-26 10:39:46 51°27.427 2°57.436 8.2243 3.394491 31.019114 -2.871232
2007-03-26 10:40:46 51°27.361 2°57.089 8.244 3.399461 31.041677 -2.871232
2007-03-26 10:41:46 51°27.292 2°56.741 8.2473 3.402463 31.047667 -2.871232
2007-03-26 10:42:46 51°27.224 2°56.392 8.2639 3.395008 30.968034 -2.871232
2007-03-26 10:43:46 51°27.157 2°56.04 8.2699 3.395629 30.966767 -2.871232
2007-03-26 10:44:46 51°27.088 2°55.687 8.2865 3.403291 31.039226 -2.871232
2007-03-26 10:45:46 51°27.018 2°55.341 8.3021 3.405983 31.047118 -2.871232
2007-03-26 10:46:46 51°26.947 2°54.996 8.2626 3.409193 31.072003 -2.871232
2007-03-26 10:47:46 51°26.875 2°54.647 8.2541 3.391591 30.936826 -2.871232
2007-03-26 10:48:46 51°26.806 2°54.291 8.2854 3.391177 30.925932 -2.871232
2007-03-26 10:49:46 51°26.733 2°53.939 8.2675 3.395008 30.942043 -2.871232
2007-03-26 10:50:46 51°26.667 2°53.588 8.285 3.388278 30.880719 -2.871232
2007-03-26 10:51:46 51°26.597 2°53.242 8.283 3.387967 30.869221 -2.871232
2007-03-26 10:52:46 51°26.528 2°52.894 8.2844 3.389727 30.887006 -2.871232
2007-03-26 10:53:46 51°26.459 2°52.546 8.312 3.393869 30.913794 -2.871232
2007-03-26 10:54:46 51°26.41 2°52.187 8.2975 3.39128 30.894336 -2.871232
2007-03-26 10:55:46 51°26.366 2°51.825 8.3137 3.393558 30.903967 -2.871232
2007-03-26 10:56:46 51°26.321 2°51.463 8.345 3.398528 30.939098 -2.871232
2007-03-26 10:57:46 51°26.276 2°51.099 8.3654 3.404118 30.969597 -2.871232
2007-03-26 10:58:46 51°26.23 2°50.733 8.4092 3.411677 31.014039 -2.871232
2007-03-26 10:59:46 51°26.187 2°50.372 8.3907 3.420167 31.081214 -2.871232
2007-03-26 11:00:46 51°26.141 2°50.011 8.3761 3.419857 31.10073 -2.871232
2007-03-26 11:01:46 51°26.106 2°49.641 8.3858 3.415301 31.05645 -2.871232
2007-03-26 11:02:46 51°26.075 2°49.273 8.4145 3.413437 31.030114 -2.871232
2007-03-26 11:03:46 51°26.048 2°48.925 8.4139 3.421409 31.082842 -2.871232
2007-03-26 11:04:46 51°26.015 2°48.709 8.4033 3.417682 31.057839 -2.871232
2007-03-26 11:05:46 51°26.014 2°48.568 8.4058 3.413644 31.022156 -2.871232
2007-03-26 11:06:46 51°26.015 2°48.511 8.4032 3.413851 31.026755 -2.871232
2007-03-26 11:07:46 51°26.004 2°48.492 8.3969 3.419753 31.085422 -2.871232
2007-03-26 11:08:46 51°25.994 2°48.473 8.3964 3.448746 31.379659 -2.871232
2007-03-26 11:09:46 51°25.983 2°48.452 8.395 3.451956 31.41377 -2.871232
2007-03-26 11:10:46 51°25.972 2°48.431 8.4023 3.433421 31.225814 -2.871232
2007-03-26 11:11:46 51°25.961 2°48.408 8.4068 3.426069 31.14576 -2.871232
2007-03-26 11:12:46 51°25.948 2°48.386 8.4135 3.425034 31.130279 -2.871232
2007-03-26 11:13:46 51°25.938 2°48.362 8.421 3.422859 31.103321 -2.871232
2007-03-26 11:14:46 51°25.929 2°48.291 8.4265 3.420892 31.075948 -2.871232
2007-03-26 11:15:46 51°25.847 2°48.197 8.4221 3.423273 31.111692 -2.871232
2007-03-26 11:16:46 51°25.706 2°47.946 8.4615 3.421099 31.071334 -2.871232
2007-03-26 11:17:46 51°25.557 2°47.668 8.4616 3.423169 31.067915 -2.871232
2007-03-26 11:18:46 51°25.409 2°47.386 8.4714 3.42845 31.115223 -2.871232
2007-03-26 11:19:46 51°25.258 2°47.107 8.4683 3.436009 31.185464 -2.871232
2007-03-26 11:20:46 51°25.102 2°46.826 8.4744 3.435388 31.174172 -2.871232
2007-03-26 11:21:46 51°24.949 2°46.545 8.4796 3.438183 31.208203 -2.871232
2007-03-26 11:22:46 51°24.804 2°46.256 8.4794 3.440979 31.222912 -2.871232
2007-03-26 11:23:46 51°24.688 2°45.932 8.4795 3.444707 31.255399 -2.871232
2007-03-26 11:24:46 51°24.565 2°45.612 8.5253 3.454544 31.347716 -2.871232
2007-03-26 11:25:46 51°24.435 2°45.295 8.5518 3.465624 31.420441 -2.871232
2007-03-26 11:26:46 51°24.31 2°44.973 8.5633 3.47805 31.529424 -2.871232
2007-03-26 11:27:46 51°24.174 2°44.666 8.5663 3.475151 31.501094 -2.871232
2007-03-26 11:28:46 51°24.036 2°44.357 8.5606 3.478154 31.526233 -2.871232
2007-03-26 11:29:46 51°23.896 2°44.051 8.5682 3.470698 31.460517 -2.871232
2007-03-26 11:30:46 51°23.757 2°43.741 8.5715 3.469352 31.436841 -2.871232
2007-03-26 11:31:46 51°23.615 2°43.438 8.5966 3.475979 31.484909 -2.871232
2007-03-26 11:32:46 51°23.475 2°43.128 8.6167 3.481364 31.517069 -2.871232
2007-03-26 11:33:46 51°23.339 2°42.814 8.6306 3.489441 31.587249 -2.871232
2007-03-26 11:34:46 51°23.196 2°42.503 8.6429 3.496173 31.637947 -2.871232
2007-03-26 11:35:46 51°23.057 2°42.195 8.6357 3.500937 31.69091 -2.871232
2007-03-26 11:36:46 51°22.917 2°41.887 8.6232 3.502594 31.716915 -2.871232
2007-03-26 11:37:46 51°22.777 2°41.584 8.6309 3.502179 31.702552 -2.871232
2007-03-26 11:38:46 51°22.639 2°41.278 8.5813 3.511604 31.819469 -2.871232
2007-03-26 11:39:46 51°22.5 2°40.973 8.5778 3.50653 31.792282 -2.871232
2007-03-26 11:40:46 51°22.361 2°40.669 8.5972 3.505598 31.786311 -2.871232
2007-03-26 11:41:46 51°22.219 2°40.371 8.5952 3.505079 31.756379 -2.871232
2007-03-26 11:42:46 51°22.075 2°40.067 8.582 3.501144 31.714238 -2.871232
2007-03-26 11:43:46 51°21.935 2°39.759 8.5747 3.493377 31.66415 -2.871232
2007-03-26 11:44:46 51°21.795 2°39.453 8.5576 3.492134 31.655893 -2.871232
2007-03-26 11:45:46 51°21.653 2°39.149 8.5547 3.48882 31.619148 -2.871232
2007-03-26 11:46:46 51°21.518 2°38.838 8.6036 3.486024 31.606285 -2.871232
2007-03-26 11:47:46 51°21.376 2°38.529 8.6262 3.47836 31.480137 -2.871232
2007-03-26 11:48:46 51°21.238 2°38.219 8.5844 3.483021 31.531184 -2.871232
2007-03-26 11:49:46 51°21.097 2°37.913 8.5771 3.479189 31.514651 -2.871232
2007-03-26 11:50:46 51°20.958 2°37.601 8.5974 3.477739 31.489935 -2.871232
2007-03-26 11:51:46 51°20.819 2°37.293 8.5908 3.479396 31.498985 -2.871232
2007-03-26 11:52:46 51°20.671 2°36.997 8.6129 3.482296 31.529817 -2.871232
2007-03-26 11:53:46 51°20.462 2°36.849 8.6196 3.479189 31.481708 -2.871232
2007-03-26 11:54:46 51°20.234 2°36.804 8.6262 3.475875 31.454326 -2.871232
2007-03-26 11:55:46 51°20.013 2°36.715 8.6022 3.472768 31.423122 -2.871232
2007-03-26 11:56:46 51°19.907 2°36.393 8.5692 3.471422 31.412128 -2.871232
2007-03-26 11:57:46 51°19.879 2°36.015 8.5815 3.468316 31.412088 -2.871232
2007-03-26 11:58:46 51°19.876 2°35.631 8.5859 3.467487 31.392808 -2.871232
2007-03-26 11:59:46 51°19.876 2°35.244 8.5888 3.47018 31.419021 -2.871232
2007-03-26 12:00:46 51°19.878 2°34.856 8.5774 3.474322 31.454745 -2.871232
2007-03-26 12:01:46 51°19.881 2°34.465 8.5749 3.481985 31.54954 -2.871232
2007-03-26 12:02:46 51°19.879 2°34.075 8.6145 3.489959 31.598382 -2.871232
2007-03-26 12:03:46 51°19.878 2°33.684 8.6086 3.514815 31.859467 -2.871232
2007-03-26 12:04:46 51°19.876 2°33.296 8.6272 3.523514 31.929928 -2.871232
2007-03-26 12:05:46 51°19.872 2°32.906 8.6293 3.526621 31.946642 -2.871232
2007-03-26 12:06:46 51°19.879 2°32.519 8.6371 3.528589 31.963016 -2.871232
2007-03-26 12:07:46 51°19.89 2°32.135 8.6232 3.530867 31.981658 -2.871232
2007-03-26 12:08:46 51°19.94 2°31.761 8.6434 3.53211 32.000164 -2.871232
2007-03-26 12:09:46 51°20.013 2°31.399 8.6871 3.535838 32.006813 -2.871232
2007-03-26 12:10:46 51°20.107 2°31.053 8.6913 3.541845 32.038921 -2.871232
2007-03-26 12:11:46 51°20.192 2°30.699 8.6438 3.545678 32.11093 -2.871232
2007-03-26 12:12:46 51°20.164 2°30.352 8.6158 3.543399 32.112081 -2.871232
2007-03-26 12:13:46 51°20.089 2°30.163 8.6047 3.540396 32.093023 -2.871232
2007-03-26 12:14:46 51°20.053 2°29.984 8.596 3.538843 32.099751 -2.871232
2007-03-26 12:15:46 51°20.036 2°29.869 8.6174 3.541432 32.126706 -2.871232
2007-03-26 12:16:48 51°20.026 2°29.843 8.6077 3.548371 32.173348 -2.871232
2007-03-26 12:17:47 51°20.016 2°29.832 8.5884 3.55614 32.268917 -2.871232
2007-03-26 12:18:46 51°20.008 2°29.807 8.5812 3.558626 32.307848 -2.871232
2007-03-26 12:19:46 51°19.999 2°29.774 8.5848 3.559558 32.319855 -2.871232
2007-03-26 12:20:46 51°19.988 2°29.735 8.5911 3.55904 32.313762 -2.871232
2007-03-26 12:21:46 51°19.979 2°29.692 8.5851 3.559144 32.314807 -2.871232
2007-03-26 12:22:46 51°19.97 2°29.646 8.5883 3.558211 32.305403 -2.871232
2007-03-26 12:23:46 51°19.968 2°29.582 8.5968 3.555 32.265219 -2.871232
2007-03-26 12:24:46 51°19.958 2°29.477 8.596 3.552307 32.233739 -2.871232
2007-03-26 12:25:46 51°19.908 2°29.411 8.5996 3.556036 32.273067 -2.871232
2007-03-26 12:26:46 51°19.865 2°29.438 8.6074 3.554275 32.25185 -2.871232
2007-03-26 12:27:46 51°19.822 2°29.583 8.6083 3.552825 32.22945 -2.871232
2007-03-26 12:28:46 51°19.691 2°29.812 8.6237 3.553239 32.232762 -2.871232
2007-03-26 12:29:46 51°19.575 2°30.062 8.7122 3.55065 32.178189 -2.871232
2007-03-26 12:30:46 51°19.468 2°30.325 8.7339 3.54837 32.074476 -2.871232
2007-03-26 12:31:46 51°19.354 2°30.593 8.7326 3.546091 32.048169 -2.871232
2007-03-26 12:32:46 51°19.226 2°30.855 8.6899 3.542673 32.028402 -2.871232
2007-03-26 12:33:46 51°19.093 2°31.115 8.6271 3.535838 32.010241 -2.871232
2007-03-26 12:34:46 51°18.96 2°31.377 8.624 3.531385 32.003159 -2.871232
2007-03-26 12:35:46 51°18.828 2°31.64 8.6531 3.532731 31.996129 -2.871232
2007-03-26 12:36:46 51°18.699 2°31.906 8.663 3.533663 31.998649 -2.871232
2007-03-26 12:37:46 51°18.569 2°32.17 8.6412 3.535631 31.994452 -2.871232
2007-03-26 12:38:46 51°18.443 2°32.437 8.6262 3.534907 32.04806 -2.871232
2007-03-26 12:39:46 51°18.316 2°32.7 8.6478 3.510154 31.780165 -2.871232
2007-03-26 12:40:46 51°18.204 2°32.973 8.6328 3.497415 31.639413 -2.871232
2007-03-26 12:41:46 51°18.093 2°33.247 8.6151 3.480742 31.489715 -2.871232
2007-03-26 12:42:46 51°17.983 2°33.521 8.5988 3.470283 31.402371 -2.871232
2007-03-26 12:43:46 51°17.871 2°33.792 8.5919 3.464588 31.355262 -2.871232
2007-03-26 12:44:46 51°17.761 2°34.064 8.6094 3.461999 31.330101 -2.871232
2007-03-26 12:45:46 51°17.652 2°34.335 8.5536 3.457857 31.28263 -2.871232
2007-03-26 12:46:46 51°17.542 2°34.609 8.4841 3.462517 31.40015 -2.871232
2007-03-26 12:47:46 51°17.424 2°34.866 8.4536 3.464589 31.464128 -2.871232
2007-03-26 12:48:46 51°17.305 2°35.127 8.4657 3.461793 31.448645 -2.871232
2007-03-26 12:49:46 51°17.181 2°35.388 8.4785 3.454751 31.370901 -2.871232
2007-03-26 12:50:46 51°17.055 2°35.65 8.5515 3.449263 31.295382 -2.871232
2007-03-26 12:51:46 51°16.927 2°35.912 8.606 3.451437 31.240799 -2.871232
2007-03-26 12:52:46 51°16.801 2°36.175 8.5829 3.442945 31.119623 -2.871232
2007-03-26 12:53:46 51°16.702 2°36.454 8.5158 3.43404 31.091996 -2.871232
2007-03-26 12:54:46 51°16.665 2°36.622 8.4805 3.432902 31.128207 -2.871232
2007-03-26 12:55:46 51°16.636 2°36.7 8.5099 3.43021 31.100288 -2.871232
2007-03-26 12:56:46 51°16.62 2°36.741 8.5223 3.42555 31.037563 -2.871232
2007-03-26 12:57:46 51°16.614 2°36.752 8.5068 3.423583 31.016122 -2.871232
2007-03-26 12:58:46 51°16.603 2°36.742 8.4902 3.421512 31.004478 -2.871232
2007-03-26 12:59:46 51°16.59 2°36.723 8.4903 3.419752 31.002624 -2.871232
2007-03-26 13:00:46 51°16.575 2°36.696 8.4889 3.419648 30.999915 -2.871232
2007-03-26 13:01:46 51°16.559 2°36.665 8.5018 3.419959 31.000536 -2.871232
2007-03-26 13:02:46 51°16.542 2°36.63 8.501 3.420684 31.00032 -2.871232
2007-03-26 13:03:46 51°16.526 2°36.594 8.5048 3.421201 31.003023 -2.871232
2007-03-26 13:04:46 51°16.502 2°36.59 8.5142 3.421512 31.003645 -2.871232
2007-03-26 13:05:46 51°16.431 2°36.706 8.5016 3.420891 30.996566 -2.871232
2007-03-26 13:06:46 51°16.258 2°36.899 8.4488 3.418302 30.998054 -2.871232
2007-03-26 13:07:46 51°16.085 2°37.113 8.4463 3.413126 30.976828 -2.871232
2007-03-26 13:08:46 51°15.902 2°37.306 8.3896 3.408259 30.960372 -2.871232
2007-03-26 13:09:46 51°15.717 2°37.494 8.3615 3.403393 30.938046 -2.871232
2007-03-26 13:10:46 51°15.525 2°37.665 8.3515 3.401219 30.933661 -2.871232
2007-03-26 13:11:46 51°15.324 2°37.823 8.3485 3.401944 30.951003 -2.871232
2007-03-26 13:12:46 51°15.122 2°37.976 8.3636 3.402773 30.961034 -2.871232
2007-03-26 13:13:46 51°14.919 2°38.138 8.4431 3.40184 30.903203 -2.871232
2007-03-26 13:14:46 51°14.727 2°38.322 8.461 3.398423 30.818074 -2.871232
2007-03-26 13:15:46 51°14.533 2°38.501 8.485 3.396766 30.791465 -2.871232
2007-03-26 13:16:46 51°14.331 2°38.649 8.5111 3.386929 30.658774 -2.871232
2007-03-26 13:17:46 51°14.113 2°38.743 8.4621 3.361149 30.412436 -2.871232
2007-03-26 13:18:46 51°13.883 2°38.78 8.4209 3.351936 30.343709 -2.871232
2007-03-26 13:19:46 51°13.65 2°38.736 8.3577 3.348727 30.382662 -2.871232
2007-03-26 13:20:46 51°13.434 2°38.56 8.3866 3.345104 30.370813 -2.871232
2007-03-26 13:21:46 51°13.217 2°38.379 8.3964 3.342723 30.325563 -2.871232
2007-03-26 13:22:46 51°13 2°38.202 8.4518 3.341376 30.248369 -2.871232
2007-03-26 13:23:46 51°12.779 2°38.034 8.3978 3.335061 30.206985 -2.871232
2007-03-26 13:24:46 51°12.558 2°37.872 8.3599 3.333095 30.245925 -2.871232
2007-03-26 13:25:46 51°12.337 2°37.71 8.3292 3.334441 30.270901 -2.871232
2007-03-26 13:26:46 51°12.116 2°37.554 8.297 3.333095 30.276171 -2.871232
2007-03-26 13:27:46 51°11.893 2°37.393 8.263 3.334131 30.317731 -2.871232
2007-03-26 13:28:46 51°11.673 2°37.221 8.2506 3.335167 30.353624 -2.871232
2007-03-26 13:29:46 51°11.463 2°37.021 8.2406 3.332682 30.34418 -2.871232
2007-03-26 13:30:46 51°11.252 2°36.822 8.2528 3.330301 30.313587 -2.871232
2007-03-26 13:31:46 51°11.043 2°36.628 8.2315 3.328231 30.296808 -2.871232
2007-03-26 13:32:46 51°10.833 2°36.433 8.2468 3.334339 30.369945 -2.871232
2007-03-26 13:33:46 51°10.626 2°36.235 8.2703 3.348418 30.488962 -2.871232
2007-03-26 13:34:46 51°10.418 2°36.042 8.2593 3.362809 30.627604 -2.871232
2007-03-26 13:35:46 51°10.212 2°35.852 8.2527 3.370988 30.706872 -2.871232
2007-03-26 13:36:46 51°9.988 2°35.796 8.4768 3.37078 30.672391 -2.871232
2007-03-26 13:37:46 51°9.84 2°36.007 8.5843 3.314977 29.920867 -2.871232
2007-03-26 13:38:46 51°9.841 2°36.308 8.6461 3.30949 29.815559 -2.871232
2007-03-26 13:39:46 51°9.935 2°36.58 8.5899 3.310317 29.767153 -2.871232
2007-03-26 13:40:46 51°10.023 2°36.86 8.5066 3.304728 29.808009 -2.871232
2007-03-26 13:41:46 51°10.086 2°37.158 8.5737 3.301313 29.816318 -2.871232
2007-03-26 13:42:46 51°10.156 2°37.451 8.5521 3.301105 29.747053 -2.871232
2007-03-26 13:43:46 51°10.225 2°37.746 8.5221 3.296861 29.711074 -2.871232
2007-03-26 13:44:46 51°10.285 2°38.047 8.4413 3.290858 29.712553 -2.871232
2007-03-26 13:45:46 51°10.346 2°38.346 8.3866 3.284441 29.713914 -2.871232
2007-03-26 13:46:46 51°10.408 2°38.646 8.3751 3.277713 29.670508 -2.871232
2007-03-26 13:47:46 51°10.47 2°38.947 8.3821 3.27233 29.620556 -2.871232
2007-03-26 13:48:46 51°10.533 2°39.25 8.3568 3.26643 29.553456 -2.871232
2007-03-26 13:49:46 51°10.596 2°39.55 8.3015 3.260634 29.540016 -2.871232
2007-03-26 13:50:46 51°10.66 2°39.851 8.3113 3.257218 29.515326 -2.871232
2007-03-26 13:51:46 51°10.723 2°40.153 8.291 3.250698 29.469829 -2.871232
2007-03-26 13:52:46 51°10.787 2°40.455 8.3079 3.246765 29.439117 -2.871232
2007-03-26 13:53:46 51°10.851 2°40.757 8.3395 3.242935 29.363355 -2.871232
2007-03-26 13:54:46 51°10.915 2°41.06 8.3315 3.242831 29.352011 -2.871232
2007-03-26 13:55:46 51°10.98 2°41.367 8.3258 3.245315 29.393567 -2.871232
2007-03-26 13:56:46 51°11.045 2°41.668 8.3338 3.242417 29.363721 -2.871232
2007-03-26 13:57:46 51°11.079 2°41.856 8.3292 3.239519 29.335465 -2.871232
2007-03-26 13:58:46 51°11.1 2°41.97 8.3575 3.237759 29.301206 -2.871232
2007-03-26 13:59:46 51°11.109 2°42.019 8.3686 3.238898 29.293627 -2.871232
2007-03-26 14:00:46 51°11.11 2°42.02 8.3617 3.240036 29.304233 -2.871232
2007-03-26 14:01:46 51°11.108 2°42.012 8.348 3.239933 29.315062 -2.871232
2007-03-26 14:02:46 51°11.102 2°41.998 8.3584 3.240036 29.315307 -2.871232
2007-03-26 14:03:46 51°11.094 2°41.981 8.3632 3.24045 29.316288 -2.871232
2007-03-26 14:04:46 51°11.082 2°41.961 8.3733 3.240968 29.31514 -2.871232
2007-03-26 14:05:46 51°11.075 2°41.961 8.3929 3.242002 29.308894 -2.871232
2007-03-26 14:06:46 51°11.119 2°42.166 8.3764 3.242209 29.297534 -2.871232
2007-03-26 14:07:46 51°11.151 2°42.476 8.3204 3.236207 29.285656 -2.871232
2007-03-26 14:08:46 51°11.186 2°42.792 8.2986 3.228962 29.24469 -2.871232
2007-03-26 14:09:46 51°11.232 2°43.107 8.2717 3.226478 29.235599 -2.871232
2007-03-26 14:10:46 51°11.28 2°43.421 8.2937 3.22327 29.21291 -2.871232
2007-03-26 14:11:46 51°11.325 2°43.732 8.2819 3.21913 29.15404 -2.871232
2007-03-26 14:12:46 51°11.371 2°44.043 8.2697 3.222131 29.201492 -2.871232
2007-03-26 14:13:46 51°11.415 2°44.352 8.3392 3.213024 29.108594 -2.871232
2007-03-26 14:14:46 51°11.46 2°44.66 8.3502 3.209504 28.991761 -2.871232
2007-03-26 14:15:46 51°11.505 2°44.967 8.3198 3.203191 28.961485 -2.871232
2007-03-26 14:16:46 51°11.55 2°45.274 8.2999 3.198948 28.942492 -2.871232
2007-03-26 14:17:46 51°11.593 2°45.584 8.2704 3.198327 28.951144 -2.871232
2007-03-26 14:18:46 51°11.64 2°45.894 8.2672 3.196154 28.946602 -2.871232
2007-03-26 14:19:46 51°11.721 2°46.181 8.3081 3.19605 28.931474 -2.871232
2007-03-26 14:20:46 51°11.808 2°46.465 8.2868 3.198431 28.935749 -2.871232
2007-03-26 14:21:46 51°11.874 2°46.766 8.2757 3.197085 28.945752 -2.871232
2007-03-26 14:22:46 51°11.934 2°47.07 8.2766 3.198534 28.956349 -2.871232
2007-03-26 14:23:46 51°11.997 2°47.376 8.2573 3.202985 29.018189 -2.871232
2007-03-26 14:24:46 51°12.069 2°47.678 8.188 3.193153 28.949435 -2.871232
2007-03-26 14:25:46 51°12.156 2°47.972 8.1656 3.189325 28.96911 -2.871232
2007-03-26 14:26:46 51°12.257 2°48.255 8.1658 3.190463 28.979762 -2.871232
2007-03-26 14:27:46 51°12.36 2°48.537 8.1732 3.191291 28.990442 -2.871232
2007-03-26 14:28:46 51°12.461 2°48.821 8.1516 3.19036 28.973217 -2.871232
2007-03-26 14:29:46 51°12.561 2°49.107 8.1391 3.188601 28.975204 -2.871232
2007-03-26 14:30:46 51°12.656 2°49.397 8.1092 3.188808 28.982007 -2.871232
2007-03-26 14:31:46 51°12.753 2°49.685 8.3065 3.189221 28.938219 -2.871232
2007-03-26 14:32:46 51°12.851 2°49.97 8.3304 3.194912 28.886483 -2.871232
2007-03-26 14:33:46 51°12.954 2°50.255 8.262 3.194705 28.907057 -2.871232
2007-03-26 14:34:46 51°13.056 2°50.541 8.261 3.196258 28.982145 -2.871232
2007-03-26 14:35:46 51°13.158 2°50.825 8.3064 3.204329 28.95567 -2.871232
2007-03-26 14:36:46 51°13.273 2°51.098 8.3891 3.20671 29.024119 -2.871232
2007-03-26 14:37:46 51°13.388 2°51.369 8.2938 3.211677 29.038549 -2.871232
2007-03-26 14:38:45 51°13.5 2°51.638 8.3015 3.211471 29.063942 -2.871232
2007-03-26 14:39:46 51°13.608 2°51.923 8.4494 3.215196 29.038476 -2.871232
2007-03-26 14:40:45 51°13.715 2°52.196 8.4015 3.221198 29.056948 -2.871232
2007-03-26 14:41:45 51°13.821 2°52.476 8.4139 3.223062 29.108462 -2.871232
2007-03-26 14:42:45 51°13.929 2°52.756 8.4873 3.224924 29.078484 -2.871232
2007-03-26 14:43:45 51°14.037 2°53.037 8.4207 3.225856 29.101091 -2.871232
2007-03-26 14:44:46 51°14.152 2°53.317 8.3015 3.223993 29.139765 -2.871232
2007-03-26 14:45:45 51°14.279 2°53.573 8.3219 3.224512 29.195351 -2.871232
2007-03-26 14:46:46 51°14.424 2°53.821 8.2832 3.227202 29.171071 -2.871232
2007-03-26 14:47:46 51°14.592 2°54.022 8.2995 3.226789 29.238713 -2.871232
2007-03-26 14:48:47 51°14.801 2°54.09 8.3329 3.232688 29.267799 -2.871232
2007-03-26 14:49:45 51°15.004 2°54.092 8.3023 3.240968 29.330178 -2.871232
2007-03-26 14:50:46 51°15.218 2°54.103 8.2946 3.246972 29.430846 -2.871232
2007-03-26 14:51:46 51°15.432 2°54.119 8.2891 3.246972 29.424481 -2.871232
2007-03-26 14:52:46 51°15.646 2°54.135 8.1879 3.242418 29.429719 -2.871232
2007-03-26 14:53:46 51°15.86 2°54.153 8.338 3.237347 29.408239 -2.871232
2007-03-26 14:54:45 51°16.049 2°54.168 8.287 3.249559 29.439298 -2.871232
2007-03-26 14:55:46 51°16.133 2°54.24 8.3243 3.259495 29.525406 -2.871232
2007-03-26 14:56:46 51°16.187 2°54.31 8.2825 3.257736 29.539676 -2.871232
2007-03-26 14:57:46 51°16.247 2°54.357 8.3411 3.257736 29.540475 -2.871232
2007-03-26 14:58:46 51°16.251 2°54.372 8.3332 3.262704 29.552797 -2.871232
2007-03-26 14:59:46 51°16.244 2°54.382 8.3462 3.262808 29.559423 -2.871232
2007-03-26 15:00:46 51°16.233 2°54.389 8.3699 3.265499 29.56007 -2.871232
2007-03-26 15:01:46 51°16.22 2°54.392 8.4089 3.267154 29.561512 -2.871232
2007-03-26 15:02:46 51°16.207 2°54.393 8.3975 3.269328 29.563354 -2.871232
2007-03-26 15:03:45 51°16.191 2°54.41 8.3878 3.268603 29.564866 -2.871232
2007-03-26 15:04:46 51°16.102 2°54.444 8.2769 3.266327 29.577948 -2.871232
2007-03-26 15:05:46 51°15.906 2°54.473 8.3388 3.260013 29.562536 -2.871232
2007-03-26 15:06:46 51°15.681 2°54.508 8.3102 3.258771 29.509373 -2.871232
2007-03-26 15:07:46 51°15.499 2°54.497 8.2386 3.244281 29.438871 -2.871232
2007-03-26 15:08:46 51°15.403 2°54.458 8.3016 3.247075 29.455778 -2.871232
2007-03-26 15:09:46 51°15.334 2°54.473 8.3745 3.25225 29.463103 -2.871232
2007-03-26 15:10:46 51°15.27 2°54.502 8.4688 3.256803 29.434028 -2.871232
2007-03-26 15:11:46 51°15.205 2°54.531 12.0193 3.261978 29.408153 -2.871232
2007-03-26 15:12:45 51°15.141 2°54.563 9.5948 2.863925 23.136173 -2.871232
2007-03-26 15:13:46 51°15.076 2°54.597 9.0087 2.461727 20.747887 -2.871232
2007-03-26 15:14:46 51°15.013 2°54.634 8.8405 2.882981 25.177239 -2.871232
2007-03-26 15:15:46 51°14.952 2°54.67 8.7579 2.449335 21.149236 -2.871232
2007-03-26 15:16:45 51°14.894 2°54.709 8.7564 2.465351 21.334191 -2.871232
2007-03-26 15:17:45 51°14.789 2°54.774 8.692 2.67288 23.329967 -2.871232
2007-03-26 15:18:46 51°14.631 2°54.878 8.6548 2.479921 21.51351 -2.871232
2007-03-26 15:19:46 51°14.456 2°55.006 8.7039 2.517019 21.888319 -2.871232
2007-03-26 15:20:46 51°14.292 2°55.206 8.7457 3.05035 27.010982 -2.871232
2007-03-26 15:21:48 51°14.135 2°55.406 8.7501 2.6459 23.063326 -2.871232
2007-03-26 15:22:49 51°14.01 2°55.495 8.6187 2.348605 20.243978 -2.871232
2007-03-26 15:23:48 51°13.908 2°55.568 8.642 2.40274 20.815292 -2.871232
2007-03-26 15:24:47 51°13.818 2°55.641 8.6004 1.946616 16.537966 -2.871232
2007-03-26 15:25:46 51°13.744 2°55.734 8.6148 2.17798 18.707203 -2.871232
2007-03-26 15:26:46 51°13.686 2°55.838 8.6316 2.110965 18.071885 -2.871232
2007-03-26 15:27:46 51°13.643 2°55.931 8.6105 1.915651 16.244906 -2.871232
2007-03-26 15:28:45 51°13.609 2°56.01 8.5075 1.999672 17.038814 -2.871232
2007-03-26 15:29:47 51°13.599 2°56.094 8.5151 2.272479 19.646894 -2.871232
2007-03-26 15:30:48 51°13.602 2°56.094 8.5342 1.902338 16.163071 -2.871232